KAST

Astoria Regional Airport

Astoria, Oregon, USA
METAR KAST 211255Z AUTO 07008KT 10SM CLR M02/M04 A3029 RMK AO2 SLP256 T10171039
Observed Flight Rules
Feb-21 @ 12:55 UTC (24 minutes ago) Visual Flight Rules
Wind Visibility Clouds
70° at 8 knots 10 miles
  • Clear skies
Temperatures Readings
Current -2°C / 28°F
Dewpoint -4°C / 25°F
Humidity 86%
Altimeter 30.29" Hg
Pressure 1025.6 hPa
Elevation 3
METAR KAST 211255Z AUTO 07008KT 10SM CLR M02/M04 A3029 RMK AO2 SLP256 T10171039
Observed Flight Rules
Feb-21 @ 12:55 UTC
(24 minutes ago)
VFR
Wind Visibility
70° at 8 knots 10 miles
Clouds
  • Clear skies
Temperature Dewpoint
-2°C / 28°F -4°C / 25°F
Humidity Altimeter Pressure
86% 30.29" Hg 1025.6 hPa